sensor_id;sensor_type;location;lat;lon;timestamp;temperature;humidity
19403;DHT22;9837;48.888;8.998;2023-03-20T00:00:27;14.30;69.50
19403;DHT22;9837;48.888;8.998;2023-03-20T00:02:54;14.30;69.60
19403;DHT22;9837;48.888;8.998;2023-03-20T00:05:21;14.20;69.70
19403;DHT22;9837;48.888;8.998;2023-03-20T00:07:48;14.30;69.30
19403;DHT22;9837;48.888;8.998;2023-03-20T00:10:16;14.20;69.90
19403;DHT22;9837;48.888;8.998;2023-03-20T00:12:42;14.80;70.00
19403;DHT22;9837;48.888;8.998;2023-03-20T00:15:29;14.30;69.00
19403;DHT22;9837;48.888;8.998;2023-03-20T00:17:55;14.30;68.80
19403;DHT22;9837;48.888;8.998;2023-03-20T00:20:22;14.30;69.50
19403;DHT22;9837;48.888;8.998;2023-03-20T00:22:48;14.30;69.30
19403;DHT22;9837;48.888;8.998;2023-03-20T00:25:21;14.20;69.50
19403;DHT22;9837;48.888;8.998;2023-03-20T00:27:47;14.20;69.00
19403;DHT22;9837;48.888;8.998;2023-03-20T00:30:22;14.30;68.80
19403;DHT22;9837;48.888;8.998;2023-03-20T00:32:49;14.30;68.60
19403;DHT22;9837;48.888;8.998;2023-03-20T00:35:21;14.30;68.40
19403;DHT22;9837;48.888;8.998;2023-03-20T00:37:47;14.30;68.50
19403;DHT22;9837;48.888;8.998;2023-03-20T00:40:13;14.30;69.20
19403;DHT22;9837;48.888;8.998;2023-03-20T00:42:39;14.30;69.20
19403;DHT22;9837;48.888;8.998;2023-03-20T00:45:07;14.20;68.70
19403;DHT22;9837;48.888;8.998;2023-03-20T00:47:37;14.20;68.80
19403;DHT22;9837;48.888;8.998;2023-03-20T00:50:29;14.20;69.40
19403;DHT22;9837;48.888;8.998;2023-03-20T00:52:54;14.30;69.20
19403;DHT22;9837;48.888;8.998;2023-03-20T00:55:21;14.30;69.10
19403;DHT22;9837;48.888;8.998;2023-03-20T00:57:52;14.30;68.20
19403;DHT22;9837;48.888;8.998;2023-03-20T01:00:19;14.30;68.90
19403;DHT22;9837;48.888;8.998;2023-03-20T01:02:45;14.30;68.70
19403;DHT22;9837;48.888;8.998;2023-03-20T01:05:12;14.30;68.60
19403;DHT22;9837;48.888;8.998;2023-03-20T01:07:38;14.40;68.60
19403;DHT22;9837;48.888;8.998;2023-03-20T01:10:04;14.30;68.00
19403;DHT22;9837;48.888;8.998;2023-03-20T01:12:30;14.30;68.70
19403;DHT22;9837;48.888;8.998;2023-03-20T01:14:57;14.40;68.70
19403;DHT22;9837;48.888;8.998;2023-03-20T01:17:24;14.30;68.50
19403;DHT22;9837;48.888;8.998;2023-03-20T01:19:50;14.40;68.00
19403;DHT22;9837;48.888;8.998;2023-03-20T01:24:42;14.30;67.70
19403;DHT22;9837;48.888;8.998;2023-03-20T01:27:16;14.30;68.20
19403;DHT22;9837;48.888;8.998;2023-03-20T01:29:42;14.30;68.20
19403;DHT22;9837;48.888;8.998;2023-03-20T01:32:13;14.30;67.30
19403;DHT22;9837;48.888;8.998;2023-03-20T01:34:40;14.30;67.90
19403;DHT22;9837;48.888;8.998;2023-03-20T01:37:11;14.40;67.00
19403;DHT22;9837;48.888;8.998;2023-03-20T01:39:38;14.50;66.80
19403;DHT22;9837;48.888;8.998;2023-03-20T01:42:04;14.40;66.40
19403;DHT22;9837;48.888;8.998;2023-03-20T01:44:33;14.40;67.10
19403;DHT22;9837;48.888;8.998;2023-03-20T01:47:01;14.40;66.70
19403;DHT22;9837;48.888;8.998;2023-03-20T01:51:53;14.40;66.60
19403;DHT22;9837;48.888;8.998;2023-03-20T01:54:27;14.40;67.30
19403;DHT22;9837;48.888;8.998;2023-03-20T01:57:07;14.30;67.00
19403;DHT22;9837;48.888;8.998;2023-03-20T02:00:10;14.30;67.70
19403;DHT22;9837;48.888;8.998;2023-03-20T02:02:37;14.30;67.40
19403;DHT22;9837;48.888;8.998;2023-03-20T02:05:07;14.30;67.70
19403;DHT22;9837;48.888;8.998;2023-03-20T02:07:34;14.20;67.80
19403;DHT22;9837;48.888;8.998;2023-03-20T02:10:03;14.30;67.90
19403;DHT22;9837;48.888;8.998;2023-03-20T02:12:29;14.20;68.50
19403;DHT22;9837;48.888;8.998;2023-03-20T02:14:56;14.20;67.90
19403;DHT22;9837;48.888;8.998;2023-03-20T02:17:21;14.10;68.00
19403;DHT22;9837;48.888;8.998;2023-03-20T02:37:02;14.20;68.10
19403;DHT22;9837;48.888;8.998;2023-03-20T02:39:55;14.20;67.90
19403;DHT22;9837;48.888;8.998;2023-03-20T02:42:31;14.20;68.00
19403;DHT22;9837;48.888;8.998;2023-03-20T02:48:15;14.20;67.80
19403;DHT22;9837;48.888;8.998;2023-03-20T02:50:49;14.10;67.90
19403;DHT22;9837;48.888;8.998;2023-03-20T03:01:27;14.10;67.50
19403;DHT22;9837;48.888;8.998;2023-03-20T03:04:00;14.10;67.10
19403;DHT22;9837;48.888;8.998;2023-03-20T03:06:31;14.10;67.20
19403;DHT22;9837;48.888;8.998;2023-03-20T03:09:17;14.10;67.90
19403;DHT22;9837;48.888;8.998;2023-03-20T03:11:52;14.00;67.80
19403;DHT22;9837;48.888;8.998;2023-03-20T03:14:33;14.00;67.80
19403;DHT22;9837;48.888;8.998;2023-03-20T03:17:01;14.10;67.00
19403;DHT22;9837;48.888;8.998;2023-03-20T03:19:29;14.10;67.70
19403;DHT22;9837;48.888;8.998;2023-03-20T03:21:56;14.00;67.10
19403;DHT22;9837;48.888;8.998;2023-03-20T03:24:32;14.00;67.80
19403;DHT22;9837;48.888;8.998;2023-03-20T03:27:02;14.00;67.30
19403;DHT22;9837;48.888;8.998;2023-03-20T03:29:32;14.00;68.00
19403;DHT22;9837;48.888;8.998;2023-03-20T03:32:00;14.00;67.40
19403;DHT22;9837;48.888;8.998;2023-03-20T03:39:49;14.00;67.80
19403;DHT22;9837;48.888;8.998;2023-03-20T03:47:44;14.00;67.50
19403;DHT22;9837;48.888;8.998;2023-03-20T03:51:03;14.00;67.50
19403;DHT22;9837;48.888;8.998;2023-03-20T03:53:07;14.10;67.60
19403;DHT22;9837;48.888;8.998;2023-03-20T03:55:38;14.00;67.20
19403;DHT22;9837;48.888;8.998;2023-03-20T03:58:57;14.00;67.30
19403;DHT22;9837;48.888;8.998;2023-03-20T04:01:03;14.00;68.00
19403;DHT22;9837;48.888;8.998;2023-03-20T04:03:37;13.90;68.00
19403;DHT22;9837;48.888;8.998;2023-03-20T04:06:05;13.50;68.60
19403;DHT22;9837;48.888;8.998;2023-03-20T04:08:32;13.50;69.30
19403;DHT22;9837;48.888;8.998;2023-03-20T04:10:58;13.60;69.40
19403;DHT22;9837;48.888;8.998;2023-03-20T04:13:23;13.70;69.20
19403;DHT22;9837;48.888;8.998;2023-03-20T04:15:49;13.70;68.10
19403;DHT22;9837;48.888;8.998;2023-03-20T04:18:16;13.70;68.80
19403;DHT22;9837;48.888;8.998;2023-03-20T04:20:42;13.70;68.70
19403;DHT22;9837;48.888;8.998;2023-03-20T04:23:08;13.70;68.80
19403;DHT22;9837;48.888;8.998;2023-03-20T04:25:33;13.80;68.70
19403;DHT22;9837;48.888;8.998;2023-03-20T04:27:59;13.80;67.60
19403;DHT22;9837;48.888;8.998;2023-03-20T04:30:24;13.80;67.70
19403;DHT22;9837;48.888;8.998;2023-03-20T04:32:50;13.80;68.40
19403;DHT22;9837;48.888;8.998;2023-03-20T04:35:16;13.70;67.90
19403;DHT22;9837;48.888;8.998;2023-03-20T04:37:41;13.70;68.50
19403;DHT22;9837;48.888;8.998;2023-03-20T04:40:07;13.70;68.40
19403;DHT22;9837;48.888;8.998;2023-03-20T04:42:33;13.70;68.30
19403;DHT22;9837;48.888;8.998;2023-03-20T04:44:59;13.50;68.20
19403;DHT22;9837;48.888;8.998;2023-03-20T04:47:24;13.50;68.20
19403;DHT22;9837;48.888;8.998;2023-03-20T04:49:50;13.70;67.90
19403;DHT22;9837;48.888;8.998;2023-03-20T04:52:16;13.60;68.50
19403;DHT22;9837;48.888;8.998;2023-03-20T04:54:41;13.80;68.20
19403;DHT22;9837;48.888;8.998;2023-03-20T04:57:07;13.80;67.90
19403;DHT22;9837;48.888;8.998;2023-03-20T04:59:33;13.80;67.70
19403;DHT22;9837;48.888;8.998;2023-03-20T05:01:58;13.90;66.70
19403;DHT22;9837;48.888;8.998;2023-03-20T05:04:24;13.90;67.50
19403;DHT22;9837;48.888;8.998;2023-03-20T05:06:49;13.90;66.30
19403;DHT22;9837;48.888;8.998;2023-03-20T05:09:15;13.90;67.00
19403;DHT22;9837;48.888;8.998;2023-03-20T05:11:42;13.90;67.10
19403;DHT22;9837;48.888;8.998;2023-03-20T05:14:07;13.90;66.90
19403;DHT22;9837;48.888;8.998;2023-03-20T05:16:33;13.90;66.70
19403;DHT22;9837;48.888;8.998;2023-03-20T05:18:59;13.70;66.30
19403;DHT22;9837;48.888;8.998;2023-03-20T05:21:24;13.70;67.10
19403;DHT22;9837;48.888;8.998;2023-03-20T05:23:50;13.70;66.30
19403;DHT22;9837;48.888;8.998;2023-03-20T05:26:15;13.70;67.00
19403;DHT22;9837;48.888;8.998;2023-03-20T05:28:41;13.70;66.50
19403;DHT22;9837;48.888;8.998;2023-03-20T05:31:07;13.60;67.10
19403;DHT22;9837;48.888;8.998;2023-03-20T05:33:33;13.70;66.30
19403;DHT22;9837;48.888;8.998;2023-03-20T05:35:58;13.80;65.90
19403;DHT22;9837;48.888;8.998;2023-03-20T05:38:24;13.70;65.70
19403;DHT22;9837;48.888;8.998;2023-03-20T05:40:58;13.70;66.40
19403;DHT22;9837;48.888;8.998;2023-03-20T05:43:24;13.80;65.30
19403;DHT22;9837;48.888;8.998;2023-03-20T05:45:50;13.80;65.20
19403;DHT22;9837;48.888;8.998;2023-03-20T05:48:15;13.80;65.90
19403;DHT22;9837;48.888;8.998;2023-03-20T05:50:41;13.90;65.70
19403;DHT22;9837;48.888;8.998;2023-03-20T05:53:06;14.00;65.40
19403;DHT22;9837;48.888;8.998;2023-03-20T05:55:32;14.10;65.40
19403;DHT22;9837;48.888;8.998;2023-03-20T05:57:58;14.10;65.40
19403;DHT22;9837;48.888;8.998;2023-03-20T06:00:23;14.10;64.60
19403;DHT22;9837;48.888;8.998;2023-03-20T06:02:49;14.10;65.20
19403;DHT22;9837;48.888;8.998;2023-03-20T06:05:15;14.10;65.30
19403;DHT22;9837;48.888;8.998;2023-03-20T06:07:40;14.20;65.30
19403;DHT22;9837;48.888;8.998;2023-03-20T06:10:06;14.20;65.30
19403;DHT22;9837;48.888;8.998;2023-03-20T06:12:32;14.20;65.40
19403;DHT22;9837;48.888;8.998;2023-03-20T06:14:58;14.10;65.50
19403;DHT22;9837;48.888;8.998;2023-03-20T06:17:23;14.20;65.50
19403;DHT22;9837;48.888;8.998;2023-03-20T06:19:49;14.10;65.60
19403;DHT22;9837;48.888;8.998;2023-03-20T06:22:15;14.10;65.70
19403;DHT22;9837;48.888;8.998;2023-03-20T06:24:41;14.10;65.80
19403;DHT22;9837;48.888;8.998;2023-03-20T06:27:07;14.20;64.90
19403;DHT22;9837;48.888;8.998;2023-03-20T06:29:33;14.20;65.60
19403;DHT22;9837;48.888;8.998;2023-03-20T06:31:58;14.30;64.50
19403;DHT22;9837;48.888;8.998;2023-03-20T06:34:24;14.30;65.20
19403;DHT22;9837;48.888;8.998;2023-03-20T06:36:50;14.50;64.20
19403;DHT22;9837;48.888;8.998;2023-03-20T06:39:16;14.40;64.80
19403;DHT22;9837;48.888;8.998;2023-03-20T06:41:41;14.50;64.80
19403;DHT22;9837;48.888;8.998;2023-03-20T06:44:07;14.60;64.70
19403;DHT22;9837;48.888;8.998;2023-03-20T06:46:32;14.70;64.80
19403;DHT22;9837;48.888;8.998;2023-03-20T06:48:58;14.70;64.20
19403;DHT22;9837;48.888;8.998;2023-03-20T06:51:23;14.80;63.40
19403;DHT22;9837;48.888;8.998;2023-03-20T06:53:49;14.50;62.70
19403;DHT22;9837;48.888;8.998;2023-03-20T06:56:15;14.50;64.40
19403;DHT22;9837;48.888;8.998;2023-03-20T06:58:41;14.60;64.10
19403;DHT22;9837;48.888;8.998;2023-03-20T07:01:11;14.90;63.40
19403;DHT22;9837;48.888;8.998;2023-03-20T07:03:37;15.30;61.70
19403;DHT22;9837;48.888;8.998;2023-03-20T07:06:03;15.40;60.60
19403;DHT22;9837;48.888;8.998;2023-03-20T07:08:29;15.40;61.30
19403;DHT22;9837;48.888;8.998;2023-03-20T07:10:54;15.60;61.00
19403;DHT22;9837;48.888;8.998;2023-03-20T07:18:12;15.60;60.00
19403;DHT22;9837;48.888;8.998;2023-03-20T07:20:37;15.60;60.80
19403;DHT22;9837;48.888;8.998;2023-03-20T07:23:03;15.50;61.20
19403;DHT22;9837;48.888;8.998;2023-03-20T07:25:28;15.40;62.10
19403;DHT22;9837;48.888;8.998;2023-03-20T07:27:54;15.30;61.60
19403;DHT22;9837;48.888;8.998;2023-03-20T07:30:19;15.40;61.80
19403;DHT22;9837;48.888;8.998;2023-03-20T07:32:45;17.20;63.10
19403;DHT22;9837;48.888;8.998;2023-03-20T07:35:12;15.30;61.80
19403;DHT22;9837;48.888;8.998;2023-03-20T07:37:38;15.40;61.80
19403;DHT22;9837;48.888;8.998;2023-03-20T07:40:04;15.40;61.50
19403;DHT22;9837;48.888;8.998;2023-03-20T07:42:30;15.50;61.40
19403;DHT22;9837;48.888;8.998;2023-03-20T07:44:55;15.60;61.50
19403;DHT22;9837;48.888;8.998;2023-03-20T07:47:21;15.70;61.20
19403;DHT22;9837;48.888;8.998;2023-03-20T07:49:46;15.80;61.10
19403;DHT22;9837;48.888;8.998;2023-03-20T07:52:12;15.90;61.00
19403;DHT22;9837;48.888;8.998;2023-03-20T07:54:37;16.00;60.80
19403;DHT22;9837;48.888;8.998;2023-03-20T07:57:03;16.10;59.60
19403;DHT22;9837;48.888;8.998;2023-03-20T07:59:30;16.10;60.10
19403;DHT22;9837;48.888;8.998;2023-03-20T08:01:56;16.40;59.30
19403;DHT22;9837;48.888;8.998;2023-03-20T08:04:21;16.40;59.80
19403;DHT22;9837;48.888;8.998;2023-03-20T08:06:47;16.60;59.20
19403;DHT22;9837;48.888;8.998;2023-03-20T08:09:13;16.60;58.70
19403;DHT22;9837;48.888;8.998;2023-03-20T08:11:39;16.40;58.10
19403;DHT22;9837;48.888;8.998;2023-03-20T08:14:04;16.30;58.90
19403;DHT22;9837;48.888;8.998;2023-03-20T08:16:30;16.30;59.20
19403;DHT22;9837;48.888;8.998;2023-03-20T08:18:56;16.30;59.40
19403;DHT22;9837;48.888;8.998;2023-03-20T08:21:26;16.40;59.60
19403;DHT22;9837;48.888;8.998;2023-03-20T08:23:52;16.40;59.50
19403;DHT22;9837;48.888;8.998;2023-03-20T08:26:17;16.50;59.70
19403;DHT22;9837;48.888;8.998;2023-03-20T08:28:43;16.50;60.00
19403;DHT22;9837;48.888;8.998;2023-03-20T08:31:08;16.40;60.00
19403;DHT22;9837;48.888;8.998;2023-03-20T08:33:34;16.50;60.00
19403;DHT22;9837;48.888;8.998;2023-03-20T08:36:00;16.60;59.90
19403;DHT22;9837;48.888;8.998;2023-03-20T08:38:25;16.90;59.30
19403;DHT22;9837;48.888;8.998;2023-03-20T08:40:51;17.40;58.90
19403;DHT22;9837;48.888;8.998;2023-03-20T08:43:20;18.00;55.70
19403;DHT22;9837;48.888;8.998;2023-03-20T08:45:45;18.00;56.20
19403;DHT22;9837;48.888;8.998;2023-03-20T08:48:11;18.30;55.70
19403;DHT22;9837;48.888;8.998;2023-03-20T08:50:37;18.60;55.40
19403;DHT22;9837;48.888;8.998;2023-03-20T08:53:03;18.90;53.90
19403;DHT22;9837;48.888;8.998;2023-03-20T08:55:29;19.60;53.10
19403;DHT22;9837;48.888;8.998;2023-03-20T08:57:55;19.80;51.40
19403;DHT22;9837;48.888;8.998;2023-03-20T09:00:22;19.50;52.20
19403;DHT22;9837;48.888;8.998;2023-03-20T09:02:48;19.20;52.50
19403;DHT22;9837;48.888;8.998;2023-03-20T09:05:14;18.40;53.50
19403;DHT22;9837;48.888;8.998;2023-03-20T09:07:40;17.60;55.80
19403;DHT22;9837;48.888;8.998;2023-03-20T09:10:06;17.20;56.80
19403;DHT22;9837;48.888;8.998;2023-03-20T09:12:32;17.20;57.70
19403;DHT22;9837;48.888;8.998;2023-03-20T09:14:58;17.20;57.30
19403;DHT22;9837;48.888;8.998;2023-03-20T09:17:24;17.10;57.50
19403;DHT22;9837;48.888;8.998;2023-03-20T09:19:50;17.20;57.20
19403;DHT22;9837;48.888;8.998;2023-03-20T09:22:16;17.20;56.90
19403;DHT22;9837;48.888;8.998;2023-03-20T09:24:43;17.50;56.80
19403;DHT22;9837;48.888;8.998;2023-03-20T09:27:09;17.90;56.60
19403;DHT22;9837;48.888;8.998;2023-03-20T09:29:34;18.20;54.40
19403;DHT22;9837;48.888;8.998;2023-03-20T09:32:00;18.50;54.60
19403;DHT22;9837;48.888;8.998;2023-03-20T09:34:26;18.70;53.80
19403;DHT22;9837;48.888;8.998;2023-03-20T09:36:51;19.10;52.30
19403;DHT22;9837;48.888;8.998;2023-03-20T09:39:17;19.10;53.50
19403;DHT22;9837;48.888;8.998;2023-03-20T09:41:47;19.20;51.50
19403;DHT22;9837;48.888;8.998;2023-03-20T09:44:28;19.40;51.40
19403;DHT22;9837;48.888;8.998;2023-03-20T09:49:39;19.20;50.50
19403;DHT22;9837;48.888;8.998;2023-03-20T09:52:28;18.90;51.70
19403;DHT22;9837;48.888;8.998;2023-03-20T09:54:57;18.60;52.00
19403;DHT22;9837;48.888;8.998;2023-03-20T09:57:38;18.70;53.10
19403;DHT22;9837;48.888;8.998;2023-03-20T10:00:17;17.80;53.80
19403;DHT22;9837;48.888;8.998;2023-03-20T10:02:55;16.80;53.40
19403;DHT22;9837;48.888;8.998;2023-03-20T10:05:56;16.80;55.70
19403;DHT22;9837;48.888;8.998;2023-03-20T10:08:28;16.90;55.50
19403;DHT22;9837;48.888;8.998;2023-03-20T10:14:42;16.50;56.50
19403;DHT22;9837;48.888;8.998;2023-03-20T10:19:26;17.20;58.00
19403;DHT22;9837;48.888;8.998;2023-03-20T10:22:22;16.60;58.10
19403;DHT22;9837;48.888;8.998;2023-03-20T10:27:44;16.00;59.10
19403;DHT22;9837;48.888;8.998;2023-03-20T10:33:03;15.80;61.60
19403;DHT22;9837;48.888;8.998;2023-03-20T10:38:40;15.60;62.40
19403;DHT22;9837;48.888;8.998;2023-03-20T10:41:12;15.70;59.90
19403;DHT22;9837;48.888;8.998;2023-03-20T10:43:41;15.90;60.10
19403;DHT22;9837;48.888;8.998;2023-03-20T10:46:11;16.10;58.50
19403;DHT22;9837;48.888;8.998;2023-03-20T10:51:40;16.00;59.10
19403;DHT22;9837;48.888;8.998;2023-03-20T10:54:21;15.50;60.00
19403;DHT22;9837;48.888;8.998;2023-03-20T10:56:50;15.60;59.90
19403;DHT22;9837;48.888;8.998;2023-03-20T10:59:24;15.50;60.50
19403;DHT22;9837;48.888;8.998;2023-03-20T11:01:50;15.90;60.20
19403;DHT22;9837;48.888;8.998;2023-03-20T11:04:16;16.60;59.20
19403;DHT22;9837;48.888;8.998;2023-03-20T11:06:58;16.90;56.80
19403;DHT22;9837;48.888;8.998;2023-03-20T11:09:25;17.10;57.50
19403;DHT22;9837;48.888;8.998;2023-03-20T11:11:57;17.80;56.40
19403;DHT22;9837;48.888;8.998;2023-03-20T11:14:26;18.10;54.90
19403;DHT22;9837;48.888;8.998;2023-03-20T11:16:53;18.00;53.80
19403;DHT22;9837;48.888;8.998;2023-03-20T11:19:21;18.00;54.30
19403;DHT22;9837;48.888;8.998;2023-03-20T11:21:53;18.40;53.50
19403;DHT22;9837;48.888;8.998;2023-03-20T11:24:34;18.90;51.70
19403;DHT22;9837;48.888;8.998;2023-03-20T11:27:24;18.20;50.70
19403;DHT22;9837;48.888;8.998;2023-03-20T11:29:51;18.10;51.50
19403;DHT22;9837;48.888;8.998;2023-03-20T11:32:26;18.50;50.60
19403;DHT22;9837;48.888;8.998;2023-03-20T11:34:53;18.50;51.20
19403;DHT22;9837;48.888;8.998;2023-03-20T11:37:25;18.40;51.50
19403;DHT22;9837;48.888;8.998;2023-03-20T11:40:15;18.30;52.00
19403;DHT22;9837;48.888;8.998;2023-03-20T11:42:52;17.90;52.50
19403;DHT22;9837;48.888;8.998;2023-03-20T11:45:18;17.60;52.70
19403;DHT22;9837;48.888;8.998;2023-03-20T11:47:49;17.10;53.00
19403;DHT22;9837;48.888;8.998;2023-03-20T11:50:32;16.60;54.20
19403;DHT22;9837;48.888;8.998;2023-03-20T11:53:34;17.10;54.30
19403;DHT22;9837;48.888;8.998;2023-03-20T11:58:36;16.90;54.30
19403;DHT22;9837;48.888;8.998;2023-03-20T12:01:02;16.90;54.40
19403;DHT22;9837;48.888;8.998;2023-03-20T12:03:43;17.00;55.10
19403;DHT22;9837;48.888;8.998;2023-03-20T12:06:18;17.40;53.20
19403;DHT22;9837;48.888;8.998;2023-03-20T12:08:50;17.80;52.20
19403;DHT22;9837;48.888;8.998;2023-03-20T12:11:49;20.00;51.80
19403;DHT22;9837;48.888;8.998;2023-03-20T12:14:25;18.40;50.50
19403;DHT22;9837;48.888;8.998;2023-03-20T12:17:00;18.20;50.10
19403;DHT22;9837;48.888;8.998;2023-03-20T12:19:29;18.20;50.50
19403;DHT22;9837;48.888;8.998;2023-03-20T12:22:16;18.00;50.10
19403;DHT22;9837;48.888;8.998;2023-03-20T12:25:52;18.10;51.40
19403;DHT22;9837;48.888;8.998;2023-03-20T12:27:54;18.40;51.70
19403;DHT22;9837;48.888;8.998;2023-03-20T12:33:28;18.10;50.80
19403;DHT22;9837;48.888;8.998;2023-03-20T12:35:57;18.10;51.00
19403;DHT22;9837;48.888;8.998;2023-03-20T12:38:29;17.70;50.70
19403;DHT22;9837;48.888;8.998;2023-03-20T12:44:00;17.10;52.50
19403;DHT22;9837;48.888;8.998;2023-03-20T12:46:56;17.20;52.40
19403;DHT22;9837;48.888;8.998;2023-03-20T12:52:47;16.90;53.10
19403;DHT22;9837;48.888;8.998;2023-03-20T12:56:06;17.00;53.50
19403;DHT22;9837;48.888;8.998;2023-03-20T13:06:50;20.10;48.60
19403;DHT22;9837;48.888;8.998;2023-03-20T13:09:48;18.80;47.60
19403;DHT22;9837;48.888;8.998;2023-03-20T13:18:25;18.50;49.40
19403;DHT22;9837;48.888;8.998;2023-03-20T13:20:55;19.00;49.60
19403;DHT22;9837;48.888;8.998;2023-03-20T13:24:05;19.20;46.60
19403;DHT22;9837;48.888;8.998;2023-03-20T13:26:41;19.20;47.70
19403;DHT22;9837;48.888;8.998;2023-03-20T13:37:17;20.20;43.90
19403;DHT22;9837;48.888;8.998;2023-03-20T13:40:21;20.20;44.50
19403;DHT22;9837;48.888;8.998;2023-03-20T13:43:02;19.60;45.50
19403;DHT22;9837;48.888;8.998;2023-03-20T13:45:35;19.60;46.40
19403;DHT22;9837;48.888;8.998;2023-03-20T14:02:03;19.30;46.60
19403;DHT22;9837;48.888;8.998;2023-03-20T14:04:35;19.30;47.20
19403;DHT22;9837;48.888;8.998;2023-03-20T14:07:24;18.50;47.20
19403;DHT22;9837;48.888;8.998;2023-03-20T14:09:47;18.50;47.80
19403;DHT22;9837;48.888;8.998;2023-03-20T14:12:13;18.00;48.70
19403;DHT22;9837;48.888;8.998;2023-03-20T14:17:14;18.60;49.40
19403;DHT22;9837;48.888;8.998;2023-03-20T14:19:41;18.00;49.10
19403;DHT22;9837;48.888;8.998;2023-03-20T14:22:14;18.20;49.20
19403;DHT22;9837;48.888;8.998;2023-03-20T14:25:02;18.50;47.80
19403;DHT22;9837;48.888;8.998;2023-03-20T14:27:29;19.00;48.10
19403;DHT22;9837;48.888;8.998;2023-03-20T14:38:33;18.10;49.60
19403;DHT22;9837;48.888;8.998;2023-03-20T14:41:27;18.40;49.40
19403;DHT22;9837;48.888;8.998;2023-03-20T14:44:14;17.30;50.10
19403;DHT22;9837;48.888;8.998;2023-03-20T14:46:52;17.10;51.20
19403;DHT22;9837;48.888;8.998;2023-03-20T14:52:22;17.90;49.70
19403;DHT22;9837;48.888;8.998;2023-03-20T14:54:53;17.70;50.60
19403;DHT22;9837;48.888;8.998;2023-03-20T14:57:32;18.10;50.50
19403;DHT22;9837;48.888;8.998;2023-03-20T14:59:58;18.30;49.40
19403;DHT22;9837;48.888;8.998;2023-03-20T15:02:30;18.40;49.80
19403;DHT22;9837;48.888;8.998;2023-03-20T15:04:59;18.60;49.70
19403;DHT22;9837;48.888;8.998;2023-03-20T15:07:29;18.60;47.70
19403;DHT22;9837;48.888;8.998;2023-03-20T15:10:00;19.20;48.70
19403;DHT22;9837;48.888;8.998;2023-03-20T15:12:31;18.50;48.20
19403;DHT22;9837;48.888;8.998;2023-03-20T15:15:02;18.10;48.50
19403;DHT22;9837;48.888;8.998;2023-03-20T15:17:35;17.90;49.80
19403;DHT22;9837;48.888;8.998;2023-03-20T15:20:11;18.00;49.40
19403;DHT22;9837;48.888;8.998;2023-03-20T15:22:53;18.40;48.30
19403;DHT22;9837;48.888;8.998;2023-03-20T15:25:21;18.50;48.80
19403;DHT22;9837;48.888;8.998;2023-03-20T15:27:48;18.80;47.80
19403;DHT22;9837;48.888;8.998;2023-03-20T15:30:19;18.40;48.70
19403;DHT22;9837;48.888;8.998;2023-03-20T15:32:47;17.90;48.80
19403;DHT22;9837;48.888;8.998;2023-03-20T15:35:19;17.70;50.10
19403;DHT22;9837;48.888;8.998;2023-03-20T15:37:46;18.00;49.70
19403;DHT22;9837;48.888;8.998;2023-03-20T15:40:24;17.70;49.80
19403;DHT22;9837;48.888;8.998;2023-03-20T15:43:04;17.90;49.70
19403;DHT22;9837;48.888;8.998;2023-03-20T15:45:33;17.60;50.20
19403;DHT22;9837;48.888;8.998;2023-03-20T15:48:06;17.60;50.60
19403;DHT22;9837;48.888;8.998;2023-03-20T15:50:36;17.30;51.00
19403;DHT22;9837;48.888;8.998;2023-03-20T15:53:05;16.90;52.20
19403;DHT22;9837;48.888;8.998;2023-03-20T15:55:33;16.70;52.30
19403;DHT22;9837;48.888;8.998;2023-03-20T15:57:59;16.60;52.90
19403;DHT22;9837;48.888;8.998;2023-03-20T16:00:30;16.70;52.60
19403;DHT22;9837;48.888;8.998;2023-03-20T16:02:58;16.80;52.70
19403;DHT22;9837;48.888;8.998;2023-03-20T16:05:27;16.90;52.10
19403;DHT22;9837;48.888;8.998;2023-03-20T16:07:53;16.70;52.60
19403;DHT22;9837;48.888;8.998;2023-03-20T16:10:27;16.70;53.10
19403;DHT22;9837;48.888;8.998;2023-03-20T16:12:53;17.10;52.60
19403;DHT22;9837;48.888;8.998;2023-03-20T16:15:20;17.40;52.10
19403;DHT22;9837;48.888;8.998;2023-03-20T16:17:51;17.60;52.10
19403;DHT22;9837;48.888;8.998;2023-03-20T16:20:18;17.80;51.20
19403;DHT22;9837;48.888;8.998;2023-03-20T16:22:45;17.70;50.90
19403;DHT22;9837;48.888;8.998;2023-03-20T16:25:16;16.90;51.60
19403;DHT22;9837;48.888;8.998;2023-03-20T16:27:44;16.90;52.20
19403;DHT22;9837;48.888;8.998;2023-03-20T16:30:21;16.50;53.10
19403;DHT22;9837;48.888;8.998;2023-03-20T16:32:53;16.50;53.50
19403;DHT22;9837;48.888;8.998;2023-03-20T16:35:25;16.30;53.10
19403;DHT22;9837;48.888;8.998;2023-03-20T16:37:54;15.70;54.50
19403;DHT22;9837;48.888;8.998;2023-03-20T16:40:22;15.50;55.00
19403;DHT22;9837;48.888;8.998;2023-03-20T16:42:53;15.70;54.40
19403;DHT22;9837;48.888;8.998;2023-03-20T16:45:29;16.00;53.50
19403;DHT22;9837;48.888;8.998;2023-03-20T16:48:19;16.10;54.20
19403;DHT22;9837;48.888;8.998;2023-03-20T16:50:46;16.30;54.10
19403;DHT22;9837;48.888;8.998;2023-03-20T16:53:18;16.70;53.10
19403;DHT22;9837;48.888;8.998;2023-03-20T16:55:46;16.90;52.60
19403;DHT22;9837;48.888;8.998;2023-03-20T16:58:20;17.00;51.50
19403;DHT22;9837;48.888;8.998;2023-03-20T17:00:50;16.90;52.10
19403;DHT22;9837;48.888;8.998;2023-03-20T17:03:23;17.00;52.10
19403;DHT22;9837;48.888;8.998;2023-03-20T17:05:52;17.10;52.00
19403;DHT22;9837;48.888;8.998;2023-03-20T17:08:29;17.10;51.40
19403;DHT22;9837;48.888;8.998;2023-03-20T17:10:58;17.10;51.70
19403;DHT22;9837;48.888;8.998;2023-03-20T17:13:24;17.10;52.30
19403;DHT22;9837;48.888;8.998;2023-03-20T17:15:49;17.00;52.40
19403;DHT22;9837;48.888;8.998;2023-03-20T17:18:15;17.00;52.90
19403;DHT22;9837;48.888;8.998;2023-03-20T17:20:40;17.00;52.90
19403;DHT22;9837;48.888;8.998;2023-03-20T17:23:12;21.40;55.00
19403;DHT22;9837;48.888;8.998;2023-03-20T17:25:38;17.10;53.00
19403;DHT22;9837;48.888;8.998;2023-03-20T17:28:04;17.00;53.00
19403;DHT22;9837;48.888;8.998;2023-03-20T17:30:30;17.00;52.30
19403;DHT22;9837;48.888;8.998;2023-03-20T17:32:55;16.90;52.60
19403;DHT22;9837;48.888;8.998;2023-03-20T17:35:21;16.90;52.60
19403;DHT22;9837;48.888;8.998;2023-03-20T17:37:46;16.90;52.60
19403;DHT22;9837;48.888;8.998;2023-03-20T17:40:19;16.90;53.10
19403;DHT22;9837;48.888;8.998;2023-03-20T17:42:45;16.80;53.20
19403;DHT22;9837;48.888;8.998;2023-03-20T17:45:13;16.70;52.50
19403;DHT22;9837;48.888;8.998;2023-03-20T17:47:39;16.70;53.00
19403;DHT22;9837;48.888;8.998;2023-03-20T17:50:06;16.70;53.20
19403;DHT22;9837;48.888;8.998;2023-03-20T17:52:31;16.70;52.70
19403;DHT22;9837;48.888;8.998;2023-03-20T17:59:51;16.70;53.70
19403;DHT22;9837;48.888;8.998;2023-03-20T18:02:18;16.70;53.80
19403;DHT22;9837;48.888;8.998;2023-03-20T18:04:47;16.70;53.80
19403;DHT22;9837;48.888;8.998;2023-03-20T18:07:13;16.70;54.00
19403;DHT22;9837;48.888;8.998;2023-03-20T18:09:40;16.70;54.00
19403;DHT22;9837;48.888;8.998;2023-03-20T18:12:09;16.70;54.00
19403;DHT22;9837;48.888;8.998;2023-03-20T18:14:35;16.70;54.10
19403;DHT22;9837;48.888;8.998;2023-03-20T18:17:01;16.70;54.10
19403;DHT22;9837;48.888;8.998;2023-03-20T18:19:27;16.60;54.60